createdAt,value
2018-12-17T00:01:52.383Z,1.10
2018-12-17T00:04:19.809Z,1.10
2018-12-17T00:06:47.338Z,1.10
2018-12-17T00:09:14.804Z,1.10
2018-12-17T00:11:42.307Z,1.00
2018-12-17T00:14:09.760Z,1.10
2018-12-17T00:16:37.201Z,1.00
2018-12-17T00:19:04.646Z,1.00
2018-12-17T00:21:32.104Z,1.00
2018-12-17T00:23:59.574Z,1.00
2018-12-17T00:26:27.049Z,1.00
2018-12-17T00:28:54.482Z,0.90
2018-12-17T00:31:21.943Z,0.90
2018-12-17T00:33:49.492Z,0.90
2018-12-17T00:36:16.942Z,0.90
2018-12-17T00:38:44.398Z,0.80
2018-12-17T00:41:11.861Z,0.80
2018-12-17T00:43:39.466Z,0.70
2018-12-17T00:46:06.914Z,0.80
2018-12-17T00:48:34.427Z,0.90
2018-12-17T00:51:01.870Z,0.90
2018-12-17T00:53:29.343Z,0.80
2018-12-17T00:55:56.790Z,0.80
2018-12-17T00:58:24.246Z,0.80
2018-12-17T01:00:51.711Z,0.90
2018-12-17T01:03:19.265Z,0.80
2018-12-17T01:05:46.704Z,0.90
2018-12-17T01:08:14.300Z,0.90
2018-12-17T01:10:41.743Z,0.90
2018-12-17T01:13:09.186Z,0.80
2018-12-17T01:15:36.647Z,0.70
2018-12-17T01:18:04.091Z,0.80
2018-12-17T01:20:31.549Z,0.80
2018-12-17T01:22:59.015Z,0.80
2018-12-17T01:25:26.499Z,0.70
2018-12-17T01:27:53.943Z,0.70
2018-12-17T01:30:21.459Z,0.70
2018-12-17T01:32:49.062Z,0.80
2018-12-17T01:35:17.211Z,0.70
2018-12-17T01:37:44.646Z,0.60
2018-12-17T01:40:12.263Z,0.60
2018-12-17T01:42:40.118Z,0.60
2018-12-17T01:45:07.537Z,0.70
2018-12-17T01:47:35.857Z,0.70
2018-12-17T01:50:03.928Z,0.80
2018-12-17T01:52:31.392Z,0.80
2018-12-17T01:54:59.651Z,0.70
2018-12-17T01:57:27.811Z,0.80
2018-12-17T01:59:55.270Z,0.80
2018-12-17T02:02:22.718Z,0.80
2018-12-17T02:04:50.262Z,0.80
2018-12-17T02:07:17.720Z,0.80
2018-12-17T02:09:45.176Z,0.90
2018-12-17T02:12:12.625Z,0.90
2018-12-17T02:14:40.230Z,1.00
2018-12-17T02:17:07.686Z,1.00
2018-12-17T02:19:35.140Z,0.90
2018-12-17T02:22:02.679Z,0.90
2018-12-17T02:24:30.115Z,0.90
2018-12-17T02:26:57.559Z,0.90
2018-12-17T02:29:25.020Z,0.90
2018-12-17T02:31:52.471Z,0.90
2018-12-17T02:34:19.981Z,1.00
2018-12-17T02:36:47.429Z,1.00
2018-12-17T02:39:14.909Z,1.00
2018-12-17T02:41:42.447Z,0.90
2018-12-17T02:44:10.101Z,1.00
2018-12-17T02:46:37.546Z,0.90
2018-12-17T02:49:05.006Z,0.90
2018-12-17T02:51:32.623Z,0.90
2018-12-17T02:54:00.349Z,0.80
2018-12-17T02:56:28.419Z,0.80
2018-12-17T02:58:55.870Z,0.80
2018-12-17T03:01:23.324Z,0.80
2018-12-17T03:03:50.757Z,0.90
2018-12-17T03:06:18.220Z,0.90
2018-12-17T03:08:45.654Z,0.90
2018-12-17T03:11:13.102Z,0.90
2018-12-17T03:13:40.542Z,0.90
2018-12-17T03:16:07.997Z,0.90
2018-12-17T03:18:35.447Z,1.00
2018-12-17T03:21:02.932Z,1.10
2018-12-17T03:23:30.373Z,1.00
2018-12-17T03:25:57.811Z,1.10
2018-12-17T03:28:25.272Z,1.00
2018-12-17T03:30:52.735Z,1.00
2018-12-17T03:33:20.258Z,1.00
2018-12-17T03:35:47.709Z,1.10
2018-12-17T03:38:15.157Z,1.10
2018-12-17T03:40:42.586Z,1.10
2018-12-17T03:43:10.047Z,1.20
2018-12-17T03:45:37.569Z,1.30
2018-12-17T03:48:05.028Z,1.40
2018-12-17T03:50:32.468Z,1.40
2018-12-17T03:52:59.963Z,1.40
2018-12-17T03:55:27.423Z,1.40
2018-12-17T03:57:54.880Z,1.50
2018-12-17T04:00:22.328Z,1.50
2018-12-17T04:02:49.763Z,1.50
2018-12-17T04:05:17.491Z,1.60
2018-12-17T04:07:44.946Z,1.60
2018-12-17T04:10:12.502Z,1.60
2018-12-17T04:12:40.023Z,1.70
2018-12-17T04:15:07.621Z,1.70
2018-12-17T04:17:35.048Z,1.80
2018-12-17T04:20:02.570Z,1.70
2018-12-17T04:22:30.013Z,1.70
2018-12-17T04:24:57.478Z,1.80
2018-12-17T04:27:24.931Z,1.80
2018-12-17T04:29:52.374Z,1.90
2018-12-17T04:32:19.862Z,1.90
2018-12-17T04:34:47.306Z,1.90
2018-12-17T04:37:14.781Z,1.90
2018-12-17T04:39:42.315Z,2.00
2018-12-17T04:42:09.758Z,2.00
2018-12-17T04:44:37.204Z,2.10
2018-12-17T04:47:04.664Z,2.10
2018-12-17T04:49:32.093Z,2.10
2018-12-17T04:51:59.570Z,2.10
2018-12-17T04:54:27.368Z,2.10
2018-12-17T04:56:54.838Z,2.10
2018-12-17T04:59:22.455Z,2.10
2018-12-17T05:01:49.897Z,2.10
2018-12-17T05:04:18.621Z,2.10
2018-12-17T05:06:46.152Z,2.00
2018-12-17T05:09:13.604Z,2.00
2018-12-17T05:11:41.055Z,2.00
2018-12-17T05:14:09.151Z,2.00
2018-12-17T05:16:36.596Z,2.10
2018-12-17T05:19:04.036Z,2.20
2018-12-17T05:21:31.577Z,2.10
2018-12-17T05:23:59.123Z,2.10
2018-12-17T05:26:26.576Z,2.20
2018-12-17T05:28:54.282Z,2.20
2018-12-17T05:31:21.741Z,2.20
2018-12-17T05:33:49.183Z,2.30
2018-12-17T05:36:16.643Z,2.30
2018-12-17T05:38:44.686Z,2.40
2018-12-17T05:41:12.127Z,2.40
2018-12-17T05:43:39.587Z,2.40
2018-12-17T05:46:07.025Z,2.50
2018-12-17T05:48:34.506Z,2.60
2018-12-17T05:51:01.944Z,2.60
2018-12-17T05:53:29.416Z,2.60
2018-12-17T05:55:56.865Z,2.60
2018-12-17T05:58:24.428Z,2.70
2018-12-17T06:00:51.863Z,2.70
2018-12-17T06:03:19.306Z,2.70
2018-12-17T06:05:46.826Z,2.70
2018-12-17T06:08:14.258Z,2.80
2018-12-17T06:10:41.717Z,2.80
2018-12-17T06:13:09.230Z,2.80
2018-12-17T06:15:36.682Z,2.80
2018-12-17T06:18:04.189Z,2.80
2018-12-17T06:20:31.647Z,2.80
2018-12-17T06:22:59.118Z,2.90
2018-12-17T06:25:26.563Z,2.90
2018-12-17T06:27:54.015Z,2.90
2018-12-17T06:30:21.508Z,3.00
2018-12-17T06:32:48.958Z,2.90
2018-12-17T06:35:16.400Z,2.90
2018-12-17T06:37:43.888Z,3.00
2018-12-17T06:40:11.335Z,3.00
2018-12-17T06:42:38.789Z,3.00
2018-12-17T06:45:06.310Z,3.10
2018-12-17T06:47:33.933Z,3.00
2018-12-17T06:50:01.381Z,3.10
2018-12-17T06:52:28.831Z,3.10
2018-12-17T06:54:56.300Z,3.10
2018-12-17T06:57:23.741Z,3.10
2018-12-17T06:59:51.192Z,3.10
2018-12-17T07:02:18.846Z,3.20
2018-12-17T07:04:46.339Z,3.10
2018-12-17T07:07:13.780Z,3.20
2018-12-17T07:09:41.239Z,3.10
2018-12-17T07:12:08.797Z,3.20
2018-12-17T07:14:36.665Z,3.10
2018-12-17T07:17:04.302Z,3.10
2018-12-17T07:19:31.864Z,3.10
2018-12-17T07:21:59.306Z,3.20
2018-12-17T07:24:26.748Z,3.20
2018-12-17T07:26:54.203Z,3.20
2018-12-17T07:29:21.634Z,3.20
2018-12-17T07:31:49.092Z,3.20
2018-12-17T07:34:17.222Z,3.30
2018-12-17T07:36:44.807Z,3.30
2018-12-17T07:39:12.333Z,3.30
2018-12-17T07:41:39.882Z,3.30
2018-12-17T07:44:07.421Z,3.30
2018-12-17T07:46:34.870Z,3.30
2018-12-17T07:49:02.733Z,3.30
2018-12-17T07:51:30.947Z,3.30
2018-12-17T07:53:58.389Z,3.40
2018-12-17T07:56:25.831Z,3.40
2018-12-17T07:58:53.284Z,3.40
2018-12-17T08:01:20.791Z,3.40
2018-12-17T08:03:48.244Z,3.50
2018-12-17T08:06:15.700Z,3.50
2018-12-17T08:08:43.152Z,3.60
2018-12-17T08:11:10.602Z,3.50
2018-12-17T08:13:38.062Z,3.60
2018-12-17T08:16:05.499Z,3.60
2018-12-17T08:18:32.943Z,3.60
2018-12-17T08:21:00.395Z,3.60
2018-12-17T08:23:27.835Z,3.60
2018-12-17T08:25:55.309Z,3.70
2018-12-17T08:28:22.794Z,3.70
2018-12-17T08:30:50.272Z,3.70
2018-12-17T08:33:17.732Z,3.90
2018-12-17T08:35:45.163Z,4.10
2018-12-17T08:38:12.766Z,4.00
2018-12-17T08:40:40.275Z,4.00
2018-12-17T08:43:07.730Z,4.00
2018-12-17T08:45:35.600Z,4.00
2018-12-17T08:48:03.126Z,4.10
2018-12-17T08:50:30.571Z,4.10
2018-12-17T08:52:58.399Z,4.10
2018-12-17T08:55:25.840Z,4.10
2018-12-17T08:57:53.278Z,4.10
2018-12-17T09:00:20.845Z,4.10
2018-12-17T09:02:48.296Z,4.20
2018-12-17T09:05:15.776Z,4.20
2018-12-17T09:07:43.215Z,4.20
2018-12-17T09:10:10.722Z,4.30
2018-12-17T09:12:38.179Z,4.30
2018-12-17T09:15:05.964Z,4.20
2018-12-17T09:17:33.431Z,4.30
2018-12-17T09:20:00.861Z,4.30
2018-12-17T09:22:28.373Z,4.30
2018-12-17T09:24:55.823Z,4.40
2018-12-17T09:27:23.333Z,4.40
2018-12-17T09:29:50.893Z,4.50
2018-12-17T09:32:18.327Z,4.50
2018-12-17T09:34:45.769Z,4.60
2018-12-17T09:37:13.211Z,4.60
2018-12-17T09:39:41.444Z,4.70
2018-12-17T09:42:08.898Z,4.70
2018-12-17T09:44:36.351Z,4.60
2018-12-17T09:47:03.916Z,4.70
2018-12-17T09:49:31.366Z,4.70
2018-12-17T09:51:58.810Z,4.80
2018-12-17T09:54:26.277Z,4.70
2018-12-17T09:56:53.719Z,4.80
2018-12-17T09:59:21.168Z,4.90
2018-12-17T10:01:50.279Z,4.90
2018-12-17T10:04:18.034Z,5.00
2018-12-17T10:06:45.518Z,5.10
2018-12-17T10:09:13.015Z,5.20
2018-12-17T10:11:40.443Z,5.20
2018-12-17T10:14:07.891Z,5.30
2018-12-17T10:16:35.340Z,5.40
2018-12-17T10:19:02.780Z,5.40
2018-12-17T10:21:30.331Z,5.50
2018-12-17T10:23:57.763Z,5.60
2018-12-17T10:26:25.273Z,5.70
2018-12-17T10:28:52.723Z,5.80
2018-12-17T10:31:20.179Z,5.90
2018-12-17T10:33:47.638Z,6.00
2018-12-17T10:36:15.141Z,6.00
2018-12-17T10:38:42.719Z,6.10
2018-12-17T10:41:10.154Z,6.10
2018-12-17T10:43:37.600Z,6.20
2018-12-17T10:46:05.052Z,6.20
2018-12-17T10:48:32.488Z,6.30
2018-12-17T10:50:59.937Z,6.40
2018-12-17T10:53:27.407Z,6.50
2018-12-17T10:55:54.875Z,6.60
2018-12-17T10:58:22.857Z,6.60
2018-12-17T11:00:55.874Z,6.70
2018-12-17T11:03:26.126Z,6.70
2018-12-17T11:05:54.755Z,6.80
2018-12-17T11:08:22.206Z,6.90
2018-12-17T11:10:49.960Z,6.90
2018-12-17T11:13:17.460Z,7.00
2018-12-17T11:15:45.419Z,7.00
2018-12-17T11:18:12.862Z,7.20
2018-12-17T11:20:40.307Z,7.30
2018-12-17T11:23:07.851Z,7.40
2018-12-17T11:25:35.314Z,7.40
2018-12-17T11:28:02.753Z,7.40
2018-12-17T11:30:30.209Z,7.30
2018-12-17T11:32:57.633Z,7.30
2018-12-17T11:35:25.738Z,7.30
2018-12-17T11:37:53.253Z,7.30
2018-12-17T11:40:20.695Z,7.40
2018-12-17T11:42:48.152Z,7.80
2018-12-17T11:45:15.591Z,8.40
2018-12-17T11:47:43.039Z,8.60
2018-12-17T11:50:10.539Z,8.80
2018-12-17T11:52:38.000Z,8.50
2018-12-17T11:55:06.406Z,8.60
2018-12-17T11:57:40.418Z,8.50
2018-12-17T12:00:08.648Z,8.90
2018-12-17T12:02:36.118Z,9.60
2018-12-17T12:05:03.681Z,9.40
2018-12-17T12:07:31.131Z,9.60
2018-12-17T12:09:58.578Z,9.70
2018-12-17T12:12:26.028Z,9.60
2018-12-17T12:14:53.470Z,9.90
2018-12-17T12:17:20.907Z,9.90
2018-12-17T12:19:48.342Z,10.20
2018-12-17T12:22:15.798Z,10.50
2018-12-17T12:24:43.274Z,10.50
2018-12-17T12:27:10.736Z,10.20
2018-12-17T12:29:38.171Z,9.80
2018-12-17T12:32:05.802Z,9.70
2018-12-17T12:34:33.231Z,9.60
2018-12-17T12:37:00.710Z,9.20
2018-12-17T12:39:28.159Z,9.20
2018-12-17T12:41:58.016Z,8.90
2018-12-17T12:44:25.483Z,8.60
2018-12-17T12:46:52.918Z,8.70
2018-12-17T12:49:20.365Z,8.50
2018-12-17T12:51:48.324Z,8.50
2018-12-17T12:54:15.949Z,8.40
2018-12-17T12:56:43.376Z,8.30
2018-12-17T12:59:12.038Z,8.20
2018-12-17T13:01:40.207Z,8.00
2018-12-17T13:04:07.668Z,8.00
2018-12-17T13:06:35.102Z,8.00
2018-12-17T13:09:03.953Z,8.30
2018-12-17T13:11:31.387Z,8.20
2018-12-17T13:13:58.827Z,8.10
2018-12-17T13:16:26.282Z,8.20
2018-12-17T13:18:53.718Z,8.00
2018-12-17T13:21:21.166Z,8.10
2018-12-17T13:23:48.622Z,8.20
2018-12-17T13:26:16.050Z,8.10
2018-12-17T13:28:43.511Z,8.10
2018-12-17T13:31:14.587Z,8.10
2018-12-17T13:33:40.377Z,8.10
2018-12-17T13:36:07.835Z,8.10
2018-12-17T13:38:35.292Z,8.10
2018-12-17T13:41:03.387Z,8.20
2018-12-17T13:43:30.864Z,8.20
2018-12-17T13:45:58.300Z,8.20
2018-12-17T13:48:25.856Z,8.10
2018-12-17T13:50:53.312Z,8.20
2018-12-17T13:53:26.356Z,8.20
2018-12-17T13:55:53.790Z,8.20
2018-12-17T13:58:21.302Z,8.20
2018-12-17T14:00:48.747Z,8.20
2018-12-17T14:03:16.408Z,8.20
2018-12-17T14:05:43.843Z,8.30
2018-12-17T14:08:11.295Z,8.30
2018-12-17T14:10:44.310Z,8.30
2018-12-17T14:13:11.760Z,8.40
2018-12-17T14:15:44.823Z,8.40
2018-12-17T14:18:18.282Z,8.50
2018-12-17T14:23:53.218Z,8.40
2018-12-17T14:26:20.653Z,8.30
2018-12-17T14:28:48.103Z,8.30
2018-12-17T14:31:15.540Z,8.30
2018-12-17T14:33:43.046Z,8.30
2018-12-17T14:36:10.491Z,8.30
2018-12-17T14:38:38.018Z,8.30
2018-12-17T14:41:05.518Z,8.30
2018-12-17T14:43:32.976Z,8.30
2018-12-17T14:46:00.417Z,8.20
2018-12-17T14:48:27.875Z,8.20
2018-12-17T14:50:55.310Z,8.20
2018-12-17T14:53:22.763Z,8.40
2018-12-17T14:55:50.275Z,8.40
2018-12-17T14:58:17.719Z,8.30
2018-12-17T15:00:45.858Z,8.40
2018-12-17T15:03:13.309Z,8.40
2018-12-17T15:05:40.871Z,8.50
2018-12-17T15:08:08.314Z,8.60
2018-12-17T15:10:35.758Z,8.50
2018-12-17T15:13:03.269Z,8.40
2018-12-17T15:15:30.744Z,8.40
2018-12-17T15:17:58.570Z,8.40
2018-12-17T15:20:26.090Z,8.30
2018-12-17T15:22:53.575Z,8.30
2018-12-17T15:25:21.120Z,8.20
2018-12-17T15:27:48.603Z,8.20
2018-12-17T15:30:16.121Z,8.10
2018-12-17T15:32:43.558Z,8.00
2018-12-17T15:35:11.012Z,8.00
2018-12-17T15:37:38.719Z,7.90
2018-12-17T15:40:06.284Z,7.90
2018-12-17T15:42:40.582Z,7.90
2018-12-17T15:45:04.265Z,7.80
2018-12-17T15:47:31.700Z,7.80
2018-12-17T15:49:59.206Z,7.80
2018-12-17T15:52:26.627Z,7.80
2018-12-17T15:54:54.071Z,7.80
2018-12-17T15:57:21.532Z,7.80
2018-12-17T15:59:48.970Z,7.70
2018-12-17T16:02:16.414Z,7.60
2018-12-17T16:04:43.867Z,7.60
2018-12-17T16:07:11.302Z,7.60
2018-12-17T16:09:38.748Z,7.50
2018-12-17T16:12:06.199Z,7.50
2018-12-17T16:14:33.636Z,7.50
2018-12-17T16:17:01.096Z,7.50
2018-12-17T16:19:28.626Z,7.50
2018-12-17T16:21:56.093Z,7.60
2018-12-17T16:24:23.543Z,7.50
2018-12-17T16:26:50.991Z,7.50
2018-12-17T16:29:18.424Z,7.50
2018-12-17T16:31:46.702Z,7.40
2018-12-17T16:34:14.350Z,7.40
2018-12-17T16:36:41.946Z,7.40
2018-12-17T16:39:09.422Z,7.40
2018-12-17T16:41:36.889Z,7.40
2018-12-17T16:44:04.402Z,7.40
2018-12-17T16:46:31.843Z,7.30
2018-12-17T16:48:59.281Z,7.20
2018-12-17T16:51:26.727Z,7.20
2018-12-17T16:53:54.398Z,7.20
2018-12-17T16:56:21.892Z,7.10
2018-12-17T16:58:49.418Z,7.10
2018-12-17T17:01:16.858Z,7.10
2018-12-17T17:03:44.325Z,7.00
2018-12-17T17:06:12.087Z,7.10
2018-12-17T17:08:39.553Z,7.00
2018-12-17T17:11:07.040Z,7.00
2018-12-17T17:13:34.482Z,7.00
2018-12-17T17:16:02.050Z,7.00
2018-12-17T17:18:29.524Z,7.00
2018-12-17T17:20:56.967Z,7.00
2018-12-17T17:23:24.423Z,7.10
2018-12-17T17:25:51.856Z,7.00
2018-12-17T17:28:19.302Z,7.00
2018-12-17T17:30:46.746Z,6.90
2018-12-17T17:33:14.618Z,6.80
2018-12-17T17:35:42.067Z,6.80
2018-12-17T17:38:09.512Z,6.80
2018-12-17T17:40:36.968Z,6.70
2018-12-17T17:43:04.418Z,6.70
2018-12-17T17:45:31.888Z,6.70
2018-12-17T17:47:59.331Z,6.60
2018-12-17T17:50:26.773Z,6.50
2018-12-17T17:52:54.215Z,6.50
2018-12-17T17:55:21.708Z,6.50
2018-12-17T17:57:49.137Z,6.50
2018-12-17T18:00:16.595Z,6.40
2018-12-17T18:02:44.046Z,6.30
2018-12-17T18:05:11.507Z,6.40
2018-12-17T18:07:38.951Z,6.40
2018-12-17T18:10:09.278Z,6.30
2018-12-17T18:12:36.764Z,6.30
2018-12-17T18:15:04.631Z,6.30
2018-12-17T18:17:32.260Z,6.20
2018-12-17T18:19:59.976Z,6.20
2018-12-17T18:22:27.404Z,6.30
2018-12-17T18:24:54.873Z,6.40
2018-12-17T18:27:22.371Z,6.40
2018-12-17T18:29:49.846Z,6.40
2018-12-17T18:32:17.306Z,6.50
2018-12-17T18:34:44.809Z,6.50
2018-12-17T18:37:12.255Z,6.50
2018-12-17T18:39:39.690Z,6.60
2018-12-17T18:42:07.187Z,6.70
2018-12-17T18:44:34.757Z,6.70
2018-12-17T18:47:02.251Z,6.70
2018-12-17T18:49:29.840Z,6.70
2018-12-17T18:51:57.299Z,6.70
2018-12-17T18:54:24.752Z,6.70
2018-12-17T18:56:52.211Z,6.70
2018-12-17T18:59:20.885Z,6.70
2018-12-17T19:01:48.351Z,6.60
2018-12-17T19:04:17.403Z,6.60
2018-12-17T19:06:44.853Z,6.60
2018-12-17T19:09:12.563Z,6.50
2018-12-17T19:11:40.895Z,6.50
2018-12-17T19:14:08.345Z,6.50
2018-12-17T19:16:35.785Z,6.40
2018-12-17T19:19:03.298Z,6.40
2018-12-17T19:21:30.755Z,6.40
2018-12-17T19:23:58.229Z,6.40
2018-12-17T19:26:25.752Z,6.40
2018-12-17T19:28:53.209Z,6.30
2018-12-17T19:31:20.706Z,6.20
2018-12-17T19:33:48.159Z,6.10
2018-12-17T19:36:15.598Z,6.10
2018-12-17T19:38:43.052Z,6.00
2018-12-17T19:41:10.497Z,6.00
2018-12-17T19:43:37.955Z,5.90
2018-12-17T19:46:05.666Z,5.80
2018-12-17T19:48:33.175Z,5.70
2018-12-17T19:51:01.460Z,5.50
2018-12-17T19:53:28.907Z,5.50
2018-12-17T19:55:56.354Z,5.50
2018-12-17T19:58:24.175Z,5.40
2018-12-17T20:00:54.732Z,5.30
2018-12-17T20:03:22.382Z,5.20
2018-12-17T20:05:50.795Z,5.10
2018-12-17T20:08:18.255Z,5.20
2018-12-17T20:10:48.507Z,5.20
2018-12-17T20:13:16.475Z,5.10
2018-12-17T20:15:45.649Z,5.00
2018-12-17T20:18:14.797Z,4.80
2018-12-17T20:20:42.242Z,4.70
2018-12-17T20:23:09.944Z,4.80
2018-12-17T20:25:37.414Z,4.70
2018-12-17T20:28:05.521Z,4.70
2018-12-17T20:30:33.068Z,4.70
2018-12-17T20:33:00.709Z,4.60
2018-12-17T20:35:30.071Z,4.50
2018-12-17T20:37:57.551Z,4.50
2018-12-17T20:40:24.994Z,4.40
2018-12-17T20:42:52.579Z,4.50
2018-12-17T20:45:20.058Z,4.50
2018-12-17T20:47:47.783Z,4.60
2018-12-17T20:50:15.320Z,4.50
2018-12-17T20:52:42.849Z,4.40
2018-12-17T20:55:10.603Z,4.30
2018-12-17T20:57:38.070Z,4.20
2018-12-17T21:00:06.860Z,4.10
2018-12-17T21:02:34.315Z,4.00
2018-12-17T21:05:01.825Z,4.00
2018-12-17T21:07:29.273Z,4.10
2018-12-17T21:09:56.747Z,4.20
2018-12-17T21:12:24.247Z,4.40
2018-12-17T21:14:51.711Z,4.60
2018-12-17T21:17:20.065Z,4.50
2018-12-17T21:19:47.500Z,4.50
2018-12-17T21:22:15.002Z,4.50
2018-12-17T21:24:42.507Z,4.40
2018-12-17T21:27:10.303Z,4.40
